createdAt,value
2018-09-27T00:00:36.146Z,20.30
2018-09-27T00:03:05.898Z,20.30
2018-09-27T00:05:35.702Z,20.30
2018-09-27T00:08:06.010Z,20.30
2018-09-27T00:10:35.646Z,20.30
2018-09-27T00:13:05.958Z,20.30
2018-09-27T00:15:35.398Z,20.30
2018-09-27T00:18:04.579Z,20.30
2018-09-27T00:20:34.626Z,20.30
2018-09-27T00:23:05.286Z,20.30
2018-09-27T00:25:34.665Z,20.30
2018-09-27T00:28:04.058Z,20.30
2018-09-27T00:30:33.350Z,20.30
2018-09-27T00:33:03.346Z,20.30
2018-09-27T00:35:32.905Z,20.30
2018-09-27T00:38:02.957Z,20.30
2018-09-27T00:40:32.717Z,20.30
2018-09-27T00:43:02.158Z,20.30
2018-09-27T00:45:31.416Z,20.30
2018-09-27T00:48:01.698Z,20.30
2018-09-27T00:50:32.277Z,20.20
2018-09-27T00:53:02.069Z,20.20
2018-09-27T00:55:31.121Z,20.20
2018-09-27T00:58:00.202Z,20.20
2018-09-27T01:00:30.213Z,20.20
2018-09-27T01:03:04.616Z,20.20
2018-09-27T01:05:34.766Z,20.20
2018-09-27T01:08:04.321Z,20.20
2018-09-27T01:10:33.866Z,20.20
2018-09-27T01:13:02.935Z,20.20
2018-09-27T01:15:31.999Z,20.20
2018-09-27T01:18:01.062Z,20.20
2018-09-27T01:20:31.507Z,20.20
2018-09-27T01:23:00.702Z,20.10
2018-09-27T01:25:30.240Z,20.10
2018-09-27T01:27:59.466Z,20.10
2018-09-27T01:30:30.137Z,20.20
2018-09-27T01:32:59.257Z,20.10
2018-09-27T01:35:28.424Z,20.10
2018-09-27T01:37:57.770Z,20.10
2018-09-27T01:40:28.393Z,20.10
2018-09-27T01:42:57.473Z,20.10
2018-09-27T01:45:26.685Z,20.10
2018-09-27T01:47:56.578Z,20.10
2018-09-27T01:50:25.972Z,20.10
2018-09-27T01:52:55.018Z,20.10
2018-09-27T01:55:24.090Z,20.10
2018-09-27T01:57:54.067Z,20.10
2018-09-27T02:00:24.179Z,20.10
2018-09-27T02:02:53.847Z,20.10
2018-09-27T02:05:23.666Z,20.10
2018-09-27T02:07:53.652Z,20.10
2018-09-27T02:10:22.854Z,20.10
2018-09-27T02:12:52.699Z,20.00
2018-09-27T02:15:21.821Z,20.10
2018-09-27T02:17:51.832Z,20.00
2018-09-27T02:20:21.033Z,20.00
2018-09-27T02:22:50.490Z,20.00
2018-09-27T02:25:20.061Z,20.00
2018-09-27T02:27:49.541Z,20.00
2018-09-27T02:30:18.637Z,20.00
2018-09-27T02:32:48.160Z,20.00
2018-09-27T02:35:17.650Z,20.00
2018-09-27T02:37:47.255Z,20.00
2018-09-27T02:40:16.941Z,20.00
2018-09-27T02:42:47.567Z,20.00
2018-09-27T02:45:16.652Z,20.00
2018-09-27T02:47:46.282Z,19.90
2018-09-27T02:50:15.869Z,19.90
2018-09-27T02:52:46.107Z,19.90
2018-09-27T02:55:15.678Z,19.90
2018-09-27T02:57:45.198Z,19.90
2018-09-27T03:00:15.461Z,19.90
2018-09-27T03:02:45.083Z,19.90
2018-09-27T03:05:14.858Z,19.90
2018-09-27T03:07:45.660Z,19.90
2018-09-27T03:10:15.280Z,19.90
2018-09-27T03:12:45.377Z,19.90
2018-09-27T03:18:09.083Z,19.90
2018-09-27T03:20:39.031Z,19.90
2018-09-27T03:23:08.965Z,19.90
2018-09-27T03:25:39.182Z,19.90
2018-09-27T03:28:08.625Z,19.80
2018-09-27T03:30:38.194Z,19.90
2018-09-27T03:33:07.762Z,19.90
2018-09-27T03:35:37.202Z,19.90
2018-09-27T03:38:06.480Z,19.90
2018-09-27T03:40:35.813Z,19.90
2018-09-27T03:43:05.855Z,19.80
2018-09-27T03:45:34.982Z,19.80
2018-09-27T03:48:04.708Z,19.80
2018-09-27T03:50:33.816Z,19.80
2018-09-27T03:53:03.920Z,19.80
2018-09-27T03:55:33.153Z,19.80
2018-09-27T03:58:02.448Z,19.80
2018-09-27T04:00:33.383Z,19.80
2018-09-27T04:03:02.612Z,19.80
2018-09-27T04:05:33.447Z,19.80
2018-09-27T04:08:03.079Z,19.70
2018-09-27T04:10:33.635Z,19.80
2018-09-27T04:13:03.323Z,19.70
2018-09-27T04:15:32.385Z,19.70
2018-09-27T04:18:01.758Z,19.70
2018-09-27T04:20:31.639Z,19.70
2018-09-27T04:23:01.833Z,19.70
2018-09-27T04:25:32.379Z,19.70
2018-09-27T04:28:02.242Z,19.70
2018-09-27T04:30:32.497Z,19.70
2018-09-27T04:33:01.639Z,19.70
2018-09-27T04:35:31.443Z,19.70
2018-09-27T04:38:01.034Z,19.70
2018-09-27T04:40:30.422Z,19.70
2018-09-27T04:42:59.585Z,19.70
2018-09-27T04:45:28.724Z,19.70
2018-09-27T04:47:58.448Z,19.70
2018-09-27T04:50:28.189Z,19.70
2018-09-27T04:52:59.485Z,19.70
2018-09-27T04:55:29.265Z,19.70
2018-09-27T04:57:58.379Z,19.80
2018-09-27T05:00:28.014Z,19.70
2018-09-27T05:03:27.881Z,19.70
2018-09-27T05:05:58.196Z,19.70
2018-09-27T05:08:30.550Z,19.70
2018-09-27T05:11:01.406Z,19.70
2018-09-27T05:13:31.217Z,19.70
2018-09-27T05:16:01.540Z,19.70
2018-09-27T05:18:32.477Z,19.70
2018-09-27T05:21:02.323Z,19.60
2018-09-27T05:23:31.870Z,19.70
2018-09-27T05:26:01.445Z,19.70
2018-09-27T05:28:31.543Z,19.70
2018-09-27T05:31:01.250Z,19.70
2018-09-27T05:33:31.785Z,19.80
2018-09-27T05:36:00.837Z,19.70
2018-09-27T05:38:30.236Z,19.70
2018-09-27T05:41:00.987Z,19.70
2018-09-27T05:43:31.232Z,19.80
2018-09-27T05:46:00.769Z,19.70
2018-09-27T05:48:29.829Z,19.70
2018-09-27T05:51:00.167Z,19.70
2018-09-27T05:53:29.406Z,19.70
2018-09-27T05:56:00.142Z,19.70
2018-09-27T05:58:30.300Z,19.60
2018-09-27T06:01:00.243Z,19.60
2018-09-27T06:03:29.817Z,17.30
2018-09-27T06:05:59.790Z,15.30
2018-09-27T06:08:29.256Z,14.10
2018-09-27T06:10:59.537Z,13.70
2018-09-27T06:13:29.300Z,14.90
2018-09-27T06:15:58.478Z,15.90
2018-09-27T06:18:29.239Z,16.50
2018-09-27T06:20:58.820Z,17.00
2018-09-27T06:23:28.018Z,17.40
2018-09-27T06:25:57.183Z,17.70
2018-09-27T06:28:26.211Z,17.90
2018-09-27T06:30:56.082Z,18.00
2018-09-27T06:33:25.258Z,18.10
2018-09-27T06:35:54.471Z,18.30
2018-09-27T06:38:24.347Z,18.40
2018-09-27T06:40:54.389Z,18.50
2018-09-27T06:43:23.841Z,18.50
2018-09-27T06:45:52.922Z,18.60
2018-09-27T06:48:22.118Z,18.60
2018-09-27T06:50:51.854Z,18.70
2018-09-27T06:53:20.949Z,18.70
2018-09-27T06:55:50.088Z,18.70
2018-09-27T06:58:19.333Z,18.80
2018-09-27T07:00:49.204Z,18.80
2018-09-27T07:03:18.611Z,18.80
2018-09-27T07:05:48.678Z,18.90
2018-09-27T07:08:22.083Z,18.90
2018-09-27T07:10:55.824Z,18.90
2018-09-27T07:13:25.010Z,18.90
2018-09-27T07:15:55.945Z,18.90
2018-09-27T07:18:25.308Z,19.00
2018-09-27T07:20:56.249Z,19.00
2018-09-27T07:23:27.096Z,19.10
2018-09-27T07:25:57.110Z,19.10
2018-09-27T07:28:26.959Z,19.20
2018-09-27T07:30:56.100Z,19.30
2018-09-27T07:33:25.219Z,19.50
2018-09-27T07:35:54.916Z,19.60
2018-09-27T07:38:24.100Z,19.80
2018-09-27T07:40:53.750Z,20.10
2018-09-27T07:43:22.822Z,20.30
2018-09-27T07:45:51.971Z,20.60
2018-09-27T07:48:21.407Z,20.80
2018-09-27T07:50:50.440Z,21.00
2018-09-27T07:53:20.492Z,21.20
2018-09-27T07:55:50.167Z,21.30
2018-09-27T07:58:19.886Z,21.50
2018-09-27T08:00:49.466Z,21.60
2018-09-27T08:03:19.023Z,21.80
2018-09-27T08:05:48.885Z,21.90
2018-09-27T08:08:19.266Z,22.00
2018-09-27T08:10:49.702Z,22.20
2018-09-27T08:13:19.002Z,22.30
2018-09-27T08:15:48.322Z,22.30
2018-09-27T08:18:18.026Z,22.40
2018-09-27T08:20:48.439Z,22.60
2018-09-27T08:23:17.576Z,22.70
2018-09-27T08:25:46.709Z,22.70
2018-09-27T08:28:17.261Z,22.80
2018-09-27T08:30:46.459Z,22.90
2018-09-27T08:33:16.455Z,23.00
2018-09-27T08:35:46.590Z,23.00
2018-09-27T08:38:16.787Z,23.10
2018-09-27T08:40:46.524Z,23.20
2018-09-27T08:43:15.649Z,23.30
2018-09-27T08:45:45.670Z,23.40
2018-09-27T08:48:15.483Z,23.50
2018-09-27T08:50:44.957Z,23.50
2018-09-27T08:53:14.210Z,23.60
2018-09-27T08:55:43.505Z,23.70
2018-09-27T08:58:13.187Z,23.70
2018-09-27T09:00:42.853Z,23.80
2018-09-27T09:03:13.147Z,23.80
2018-09-27T09:05:43.072Z,23.90
2018-09-27T09:08:12.995Z,24.00
2018-09-27T09:10:42.438Z,24.00
2018-09-27T09:13:14.022Z,24.10
2018-09-27T09:15:43.668Z,24.10
2018-09-27T09:18:13.141Z,24.10
2018-09-27T09:20:43.133Z,24.20
2018-09-27T09:23:12.262Z,24.20
2018-09-27T09:25:41.657Z,24.20
2018-09-27T09:28:11.131Z,24.30
2018-09-27T09:30:41.778Z,24.30
2018-09-27T09:33:12.311Z,24.30
2018-09-27T09:35:41.706Z,24.30
2018-09-27T09:38:11.466Z,24.40
2018-09-27T09:40:41.723Z,24.50
2018-09-27T09:43:11.429Z,24.50
2018-09-27T09:45:41.056Z,24.50
2018-09-27T09:48:10.731Z,24.60
2018-09-27T09:50:40.591Z,24.50
2018-09-27T09:53:10.338Z,24.60
2018-09-27T09:55:40.384Z,24.70
2018-09-27T09:58:10.895Z,24.70
2018-09-27T10:00:40.706Z,24.70
2018-09-27T10:03:10.062Z,24.80
2018-09-27T10:05:40.216Z,24.80
2018-09-27T10:08:10.406Z,24.90
2018-09-27T10:10:39.588Z,24.90
2018-09-27T10:13:08.856Z,24.90
2018-09-27T10:15:38.089Z,24.90
2018-09-27T10:18:08.934Z,24.90
2018-09-27T10:20:40.277Z,24.90
2018-09-27T10:23:10.365Z,24.90
2018-09-27T10:25:41.033Z,25.00
2018-09-27T10:28:10.285Z,25.00
2018-09-27T10:30:40.149Z,25.00
2018-09-27T10:33:09.614Z,25.10
2018-09-27T10:35:39.733Z,25.10
2018-09-27T10:38:09.037Z,25.10
2018-09-27T10:40:38.727Z,25.10
2018-09-27T10:43:09.523Z,25.10
2018-09-27T10:45:38.751Z,25.10
2018-09-27T10:48:08.977Z,25.10
2018-09-27T10:50:38.966Z,25.10
2018-09-27T10:53:08.353Z,25.00
2018-09-27T10:55:38.115Z,25.00
2018-09-27T10:58:08.145Z,25.00
2018-09-27T11:00:38.140Z,25.00
2018-09-27T11:03:07.263Z,25.00
2018-09-27T11:05:37.244Z,25.00
2018-09-27T11:08:07.613Z,24.90
2018-09-27T11:10:37.411Z,25.10
2018-09-27T11:13:06.718Z,25.30
2018-09-27T11:15:35.902Z,25.50
2018-09-27T11:18:05.827Z,25.60
2018-09-27T11:20:36.315Z,25.70
2018-09-27T11:23:05.840Z,25.80
2018-09-27T11:25:35.126Z,25.80
2018-09-27T11:28:04.602Z,25.80
2018-09-27T11:30:35.963Z,25.90
2018-09-27T11:33:05.182Z,26.00
2018-09-27T11:35:34.399Z,26.00
2018-09-27T11:38:26.168Z,26.10
2018-09-27T11:40:57.113Z,26.10
2018-09-27T11:43:27.716Z,26.20
2018-09-27T11:45:58.462Z,26.20
2018-09-27T11:48:33.363Z,26.30
2018-09-27T11:51:10.243Z,26.30
2018-09-27T11:53:41.922Z,26.40
2018-09-27T11:56:17.338Z,26.50
2018-09-27T11:58:58.779Z,26.50
2018-09-27T12:01:33.190Z,26.50
2018-09-27T12:04:12.078Z,26.60
2018-09-27T12:06:47.542Z,26.70
2018-09-27T12:09:29.685Z,26.70
2018-09-27T12:12:01.202Z,26.70
2018-09-27T12:14:36.441Z,26.90
2018-09-27T12:17:10.566Z,26.90
2018-09-27T12:19:48.369Z,26.90
2018-09-27T12:22:20.971Z,26.90
2018-09-27T12:25:16.835Z,27.00
2018-09-27T12:27:51.712Z,27.20
2018-09-27T12:30:25.041Z,27.30
2018-09-27T12:33:02.038Z,27.40
2018-09-27T12:35:34.050Z,27.50
2018-09-27T12:38:11.806Z,27.50
2018-09-27T12:41:01.750Z,27.50
2018-09-27T12:43:51.742Z,27.50
2018-09-27T12:46:26.988Z,27.60
2018-09-27T12:49:23.331Z,27.30
2018-09-27T12:52:04.765Z,27.00
2018-09-27T12:54:40.807Z,26.60
2018-09-27T12:57:16.512Z,26.40
2018-09-27T12:59:52.118Z,26.30
2018-09-27T13:02:27.451Z,26.20
2018-09-27T13:04:59.283Z,25.90
2018-09-27T13:07:31.278Z,25.80
2018-09-27T13:10:01.343Z,25.50
2018-09-27T13:12:46.550Z,25.40
2018-09-27T13:15:38.136Z,25.30
2018-09-27T13:18:16.357Z,25.20
2018-09-27T13:20:48.904Z,25.10
2018-09-27T13:23:33.771Z,25.10
2018-09-27T13:26:06.202Z,25.20
2018-09-27T13:28:41.514Z,25.30
2018-09-27T13:31:20.819Z,25.50
2018-09-27T13:33:53.620Z,25.50
2018-09-27T13:36:29.876Z,25.50
2018-09-27T13:39:00.925Z,25.60
2018-09-27T13:41:33.212Z,25.60
2018-09-27T13:44:07.047Z,25.70
2018-09-27T13:46:40.319Z,25.70
2018-09-27T13:49:14.295Z,25.70
2018-09-27T13:51:47.820Z,25.70
2018-09-27T13:54:19.047Z,25.60
2018-09-27T13:57:01.613Z,25.60
2018-09-27T13:59:35.812Z,25.50
2018-09-27T14:02:11.328Z,25.40
2018-09-27T14:04:43.970Z,25.30
2018-09-27T14:07:18.407Z,25.00
2018-09-27T14:09:54.690Z,24.80
2018-09-27T14:12:25.756Z,24.70
2018-09-27T14:15:03.207Z,24.60
2018-09-27T14:17:41.230Z,24.40
2018-09-27T14:20:31.127Z,24.40
2018-09-27T14:23:03.234Z,24.30
2018-09-27T14:25:40.709Z,24.20
2018-09-27T14:28:18.114Z,24.10
2018-09-27T14:31:02.113Z,24.10
2018-09-27T14:33:37.264Z,24.00
2018-09-27T14:36:17.702Z,24.00
2018-09-27T14:38:52.901Z,24.00
2018-09-27T14:41:27.351Z,23.90
2018-09-27T14:44:11.543Z,23.90
2018-09-27T14:46:44.255Z,23.80
2018-09-27T14:49:23.853Z,23.80
2018-09-27T14:52:20.782Z,23.70
2018-09-27T14:54:55.087Z,23.70
2018-09-27T14:57:33.705Z,23.60
2018-09-27T15:03:16.498Z,23.60
2018-09-27T15:05:53.618Z,23.50
2018-09-27T15:08:27.559Z,23.50
2018-09-27T15:11:03.671Z,23.50
2018-09-27T15:13:33.790Z,23.50
2018-09-27T15:16:07.221Z,23.40
2018-09-27T15:18:48.219Z,23.40
2018-09-27T15:21:23.713Z,23.30
2018-09-27T15:24:00.595Z,23.30
2018-09-27T15:26:37.654Z,23.30
2018-09-27T15:29:09.164Z,23.30
2018-09-27T15:31:47.162Z,23.30
2018-09-27T15:34:18.795Z,23.20
2018-09-27T15:36:53.895Z,23.20
2018-09-27T15:39:36.380Z,23.20
2018-09-27T15:42:23.757Z,23.10
2018-09-27T15:45:06.132Z,23.10
2018-09-27T15:48:08.511Z,23.10
2018-09-27T15:50:49.272Z,23.00
2018-09-27T15:53:38.942Z,23.00
2018-09-27T15:56:12.363Z,23.00
2018-09-27T15:58:45.711Z,23.00
2018-09-27T16:01:22.010Z,22.90
2018-09-27T16:03:59.905Z,22.90
2018-09-27T16:06:37.656Z,22.80
2018-09-27T16:09:16.711Z,22.90
2018-09-27T16:11:48.565Z,22.90
2018-09-27T16:14:23.794Z,22.80
2018-09-27T16:17:04.643Z,22.80
2018-09-27T16:19:44.504Z,22.80
2018-09-27T16:22:18.970Z,22.70
2018-09-27T16:27:37.922Z,22.70
2018-09-27T16:30:16.100Z,22.70
2018-09-27T16:32:49.729Z,22.70
2018-09-27T16:35:35.913Z,22.60
2018-09-27T16:38:19.729Z,22.60
2018-09-27T16:41:01.401Z,22.60
2018-09-27T16:46:15.919Z,22.60
2018-09-27T16:48:55.877Z,22.60
2018-09-27T16:51:32.453Z,22.50
2018-09-27T16:54:19.098Z,22.50
2018-09-27T16:57:15.219Z,22.60
2018-09-27T16:59:59.769Z,22.60
2018-09-27T17:02:52.018Z,22.60
2018-09-27T17:05:36.223Z,22.50
2018-09-27T17:11:15.284Z,22.50
2018-09-27T17:13:58.526Z,22.50
2018-09-27T17:16:52.013Z,22.50
2018-09-27T17:19:32.535Z,22.60
2018-09-27T17:28:08.700Z,22.50
2018-09-27T17:30:46.162Z,22.50
2018-09-27T17:33:23.996Z,22.50
2018-09-27T17:38:47.845Z,22.50
2018-09-27T17:41:23.921Z,22.40
2018-09-27T17:44:13.606Z,22.50
2018-09-27T17:46:50.100Z,22.40
2018-09-27T17:52:13.457Z,22.40
2018-09-27T17:57:58.999Z,22.40
2018-09-27T18:00:40.784Z,22.40
2018-09-27T18:03:26.656Z,22.40
2018-09-27T18:06:14.081Z,22.30
2018-09-27T18:08:48.447Z,22.30
2018-09-27T18:11:43.691Z,22.30
2018-09-27T18:14:21.128Z,22.30
2018-09-27T18:17:02.372Z,22.30
2018-09-27T18:22:43.817Z,22.30
2018-09-27T18:25:24.850Z,22.30
2018-09-27T18:28:03.930Z,22.30
2018-09-27T18:30:41.331Z,22.20
2018-09-27T18:33:18.975Z,22.20
2018-09-27T18:41:42.015Z,22.20
2018-09-27T18:50:12.342Z,22.10
2018-09-27T18:53:02.001Z,22.20
2018-09-27T18:55:49.421Z,22.10
2018-09-27T18:58:18.617Z,22.10
2018-09-27T19:00:48.743Z,22.10
2018-09-27T19:03:18.462Z,22.10
2018-09-27T19:05:48.775Z,22.10
2018-09-27T19:08:19.411Z,22.10
2018-09-27T19:10:49.370Z,22.00
2018-09-27T19:13:18.494Z,22.00
2018-09-27T19:15:49.015Z,22.10
2018-09-27T19:18:18.538Z,22.10
2018-09-27T19:20:48.873Z,22.10
2018-09-27T19:23:18.348Z,22.00
2018-09-27T19:25:47.770Z,22.00
2018-09-27T19:28:17.310Z,22.00
2018-09-27T19:30:46.454Z,22.00
2018-09-27T19:33:16.315Z,22.00
2018-09-27T19:35:45.955Z,22.00
2018-09-27T19:38:15.176Z,22.00
2018-09-27T19:40:44.352Z,22.00
2018-09-27T19:43:14.400Z,22.00
2018-09-27T19:45:43.653Z,21.90
2018-09-27T19:48:12.765Z,21.90
2018-09-27T19:50:43.161Z,21.90
2018-09-27T19:53:12.547Z,21.90
2018-09-27T19:55:42.134Z,21.90
2018-09-27T19:58:13.933Z,21.90
2018-09-27T20:00:43.135Z,21.90
2018-09-27T20:03:13.818Z,21.90
2018-09-27T20:05:43.479Z,21.90
2018-09-27T20:08:13.245Z,21.90
2018-09-27T20:10:42.443Z,21.80
2018-09-27T20:13:12.278Z,21.80
2018-09-27T20:15:42.506Z,21.80
2018-09-27T20:18:13.296Z,21.80
2018-09-27T20:20:43.375Z,21.80
2018-09-27T20:23:12.603Z,21.80
2018-09-27T20:25:41.750Z,21.80
2018-09-27T20:28:11.169Z,21.80
2018-09-27T20:30:41.646Z,21.80
2018-09-27T20:33:11.174Z,21.80
2018-09-27T20:35:41.131Z,21.80
2018-09-27T20:38:10.330Z,21.80
2018-09-27T20:40:39.658Z,21.80
2018-09-27T20:43:09.609Z,21.80
2018-09-27T20:45:39.921Z,21.80
2018-09-27T20:48:09.141Z,21.80
2018-09-27T20:50:38.363Z,21.80
2018-09-27T20:53:07.957Z,21.80
2018-09-27T20:55:37.219Z,21.70
2018-09-27T20:58:06.972Z,21.70
2018-09-27T21:00:36.918Z,21.70
2018-09-27T21:03:06.446Z,21.70
2018-09-27T21:05:36.330Z,21.70
2018-09-27T21:08:06.086Z,21.70
2018-09-27T21:10:35.462Z,21.70
2018-09-27T21:13:05.208Z,21.70
2018-09-27T21:15:34.486Z,21.70
2018-09-27T21:18:03.689Z,21.70
2018-09-27T21:20:33.814Z,21.70
2018-09-27T21:23:03.054Z,21.60
2018-09-27T21:25:32.823Z,21.60
2018-09-27T21:28:05.011Z,21.60
2018-09-27T21:30:35.265Z,21.60
2018-09-27T21:33:04.350Z,21.60
2018-09-27T21:35:34.716Z,21.60
2018-09-27T21:38:04.572Z,21.60
2018-09-27T21:40:33.825Z,21.60
2018-09-27T21:43:03.366Z,21.60
2018-09-27T21:45:32.481Z,21.50
2018-09-27T21:48:02.340Z,21.50
2018-09-27T21:50:31.900Z,21.50
2018-09-27T21:53:02.559Z,21.50
2018-09-27T21:55:31.644Z,21.50
2018-09-27T21:58:01.507Z,21.50
2018-09-27T22:00:30.744Z,21.50
2018-09-27T22:03:01.389Z,21.50
2018-09-27T22:05:31.662Z,21.50
2018-09-27T22:08:01.479Z,21.40
2018-09-27T22:10:31.998Z,21.40
2018-09-27T22:13:01.734Z,21.40
2018-09-27T22:15:30.889Z,21.40
2018-09-27T22:18:00.403Z,21.40
2018-09-27T22:20:30.118Z,21.40
2018-09-27T22:22:59.666Z,21.40
2018-09-27T22:25:29.509Z,21.40
2018-09-27T22:27:59.163Z,21.40
2018-09-27T22:30:29.659Z,21.30
2018-09-27T22:32:58.747Z,21.30
2018-09-27T22:35:29.890Z,21.30
2018-09-27T22:37:59.203Z,21.30
2018-09-27T22:40:28.477Z,21.30
2018-09-27T22:42:57.541Z,21.30
2018-09-27T22:45:27.270Z,21.30
2018-09-27T22:47:56.500Z,21.30
2018-09-27T22:50:26.728Z,21.30
2018-09-27T22:52:56.887Z,21.30
2018-09-27T22:55:26.674Z,21.30
2018-09-27T22:57:56.419Z,21.30
2018-09-27T23:00:27.103Z,21.30
2018-09-27T23:02:57.321Z,21.30
2018-09-27T23:05:27.174Z,21.30
2018-09-27T23:07:57.438Z,21.30
2018-09-27T23:10:27.575Z,21.20
2018-09-27T23:12:56.670Z,21.20
2018-09-27T23:15:27.133Z,21.20
2018-09-27T23:17:56.506Z,21.20
2018-09-27T23:20:26.780Z,21.20
2018-09-27T23:22:55.837Z,21.20
2018-09-27T23:25:25.438Z,21.20
2018-09-27T23:27:55.126Z,21.20
2018-09-27T23:30:24.418Z,21.20
2018-09-27T23:32:54.796Z,21.20
2018-09-27T23:35:24.469Z,21.20
2018-09-27T23:37:53.721Z,21.20
2018-09-27T23:40:22.836Z,21.10
2018-09-27T23:42:51.989Z,21.10
2018-09-27T23:45:21.820Z,21.10
2018-09-27T23:47:52.302Z,21.10
2018-09-27T23:50:21.382Z,21.10
2018-09-27T23:52:51.067Z,21.10
2018-09-27T23:55:20.610Z,21.10
2018-09-27T23:57:49.757Z,21.10
